NCAR-RAP Real-Time Weather Data

Output produced by METARs form (20 February 2019  18:13 UTC)
found at http://weather.rap.ucar.edu/surface/
 
RJAA 201800Z 36007KT 9999 FEW020 SCT060 07/06 Q1013 NOSIG RMK 1CU020 4SC060 A2992
RJAA 201730Z 01009KT 9999 FEW008 SCT025 BKN060 08/06 Q1013 NOSIG RMK 1ST008 4CU025 7SC060 A2992
RJAA 201700Z 01009KT 9999 VCSH FEW008 BKN025 BKN050 08/06 Q1013 NOSIG RMK 1ST008 5CU025 7SC050 A2992
RJAA 201630Z 36009KT 9999 -SHRA FEW008 BKN040 08/07 Q1012 NOSIG RMK 1ST008 7CU040 A2991
RJAA 201600Z 36011KT 9999 -SHRA FEW008 BKN035 08/07 Q1012 NOSIG RMK 1ST008 7CU035 A2991
RJAA 201530Z 01012KT 9999 FEW008 BKN035 08/07 Q1012 NOSIG RMK 1ST008 7CU035 A2990
RJAA 201500Z 01013KT 9999 -SHRA FEW008 SCT035 BKN050 08/07 Q1012 NOSIG RMK 1ST008 3CU035 7SC050 A2990
RJAA 201430Z 01014KT 9999 -SHRA FEW005 SCT035 BKN060 09/07 Q1012 TEMPO FEW005 BKN008
RJAA 201400Z 03014KT 9999 -SHRA FEW005 BKN035 09/08 Q1011 TEMPO 02015G25KT RMK 1ST005 7CU035 A2988
RJAA 201343Z 03017KT 9999 -SHRA FEW005 SCT008 BKN020 09/08 Q1011 RMK 1ST005 3ST008 5CU020 A2988
RJAA 201330Z 03014KT 9999 -SHRA FEW005 BKN008 10/09 Q1011 TEMPO 02015G25KT
RJAA 201321Z 02014KT 9999 -SHRA FEW005 BKN008 10/09 Q1011 RMK 1ST005 7ST008 A2988 MOD TURB OBS AT 1300Z TETRA FL150 IN CMB B747
RJAA 201300Z 05015KT 9999 -SHRA FEW008 SCT010 BKN020 10/09 Q1011 TEMPO 01015G25KT FEW005 BKN008
RJAA 201230Z 01014KT 9999 -SHRA FEW010 BKN020 11/10 Q1011 TEMPO 01015G25KT
RJAA 201200Z 05008KT 010V070 9999 -SHRA SCT020 BKN025 13/09 Q1011 NOSIG RMK 3CU020 7CU025 A2986
RJAA 201130Z 06009KT 010V090 9999 VCSH FEW020 BKN035 13/09 Q1011 BECMG TL1200 03008KT RMK 1CU020 7CU035 A2986
RJAA 201100Z 06009KT 010V090 9999 FEW020 BKN040 13/09 Q1011 BECMG TL1200 03008KT
RJAA 201030Z 06009KT 030V090 9999 FEW020 BKN030 13/09 Q1011 BECMG 03008KT
RJAA 201000Z 06008KT 010V100 9999 FEW015 BKN025 13/09 Q1011 BECMG 03005KT
RJAA 200930Z 07009KT 020V100 9999 SCT025 BKN080 13/09 Q1011 NOSIG RMK 3CU025 6AC080 A2986 MOD TURB OBS AT 0922Z 5NM S TEMIS 5000FT A320 APJ526
RJAA 200900Z 08010KT 030V100 9999 FEW020 BKN080 13/09 Q1011 NOSIG RMK 1CU020 7AC080 A2985
RJAA 200830Z 07008KT 040V110 9999 FEW020 SCT030 BKN070 13/09 Q1011 NOSIG RMK 1CU020 4CU030 7AC070 A2986
RJAA 200800Z 05008KT 360V070 9999 FEW015 BKN025 BKN045 13/10 Q1011 BECMG 08008KT RMK 1CU015 6CU025 7SC045 A2987
RJAA 200730Z 05007KT 020V090 9999 FEW015 BKN020 BKN040 14/09 Q1011 BECMG 07008KT
RJAA 200700Z 07011KT 9999 FEW015 BKN020 14/10 Q1010 NOSIG RMK 1CU015 6CU020 A2985
RJAA 200630Z 08012KT 9999 FEW015 SCT020 BKN040 15/10 Q1010 NOSIG RMK 1CU015 3CU020 5SC040 A2983
RJAA 200600Z 08012KT 040V110 9999 FEW015 SCT020 15/09 Q1010 NOSIG RMK 1CU015 4CU020 A2982
RJAA 200530Z 08012KT 030V110 9999 FEW015 SCT020 16/10 Q1009 NOSIG RMK 1CU015 4CU020 A2982
RJAA 200500Z 07012KT 9999 FEW020 BKN035 15/10 Q1010 NOSIG RMK 2CU020 5CU035 A2982
RJAA 200430Z 07012KT 020V100 9999 FEW020 BKN035 16/10 Q1010 NOSIG RMK 1CU020 6CU035 A2983
RJAA 200400Z 07010KT 9999 FEW020 BKN030 16/10 Q1010 NOSIG RMK 2CU020 7CU030 A2985
RJAA 200330Z 07012KT 9999 FEW020 BKN035 17/11 Q1010 NOSIG RMK 2CU020 7CU035 A2984
RJAA 200300Z 08010KT 9999 SCT020 BKN030 17/11 Q1010 NOSIG RMK 3CU020 7CU030 A2984
RJAA 200230Z 07010KT 9999 BKN025 17/11 Q1011 NOSIG RMK 6CU025 A2987
RJAA 200200Z 07010KT 9999 BKN025 18/11 Q1010 NOSIG RMK 6CU025 A2985
RJAA 200130Z 07009KT 040V120 9999 FEW020 17/11 Q1011 NOSIG RMK 1CU020 A2985
RJAA 200100Z 07003KT 010V130 8000 FEW020 15/11 Q1010 NOSIG RMK 1CU020 A2984
RJAA 200030Z 10003KT 040V130 7000 FEW020 SCT/// 13/10 Q1011 NOSIG RMK 1CU020 A2986
RJAA 200000Z VRB01KT 7000 FEW015 BKN/// 11/09 Q1011 BECMG 09005KT RMK 1SC015 A2987
RJAA 192330Z 13003KT 050V160 5000 BR FEW015 BKN/// 09/08 Q1011 NOSIG RMK 1SC015 A2985
RJAA 192300Z VRB02KT 5000 BR FEW015 SCT/// 08/07 Q1010 BECMG 05005KT
RJAA 192230Z VRB04KT 3200 BR FEW015 SCT/// 06/06 Q1010 BECMG 34005KT 8000 NSW
RJAA 192200Z 36003KT 320V070 3000 R34L/P2000N R34R/P2000N BR FEW015 BKN/// 06/05 Q1010 BECMG 8000 NSW
RJAA 192130Z 29003KT 220V010 3500 BR FEW015 BKN/// 05/04 Q1010 BECMG 8000 NSW RMK 1SC015 A2983
RJAA 192100Z 32004KT 4000 BR FEW003 BKN/// 05/04 Q1009 BECMG 8000 NSW RMK 1ST003 A2982
RJAA 192051Z 33003KT 4000 BR FEW003 BKN/// 06/05 Q1009 RMK 1ST003 A2981
RJAA 192030Z 32005KT 5000 BR FEW003 BKN/// 06/05 Q1009 TEMPO 4000 BR RMK 1ST003 A2982
RJAA 192020Z 32003KT 5000 BR FEW003 BKN/// 06/05 Q1009 RMK 1ST003 A2981
RJAA 192000Z VRB01KT 4500 BR FEW003 SCT004 05/05 Q1009 TEMPO 3000 BR FEW003 BKN004
RJAA 191930Z 33004KT 4000 BR FEW005 05/05 Q1009 NOSIG RMK 1ST005 A2979
RJAA 191900Z 33005KT 4000 BR FEW006 SCT008 07/05 Q1008 BECMG 6000 NSW
RJAA 191830Z 32005KT 240V340 3000 BR FEW008 BKN010 07/06 Q1008 BECMG 4000 BR
RJAA 191800Z 32004KT 2500 BR FEW008 BKN012 07/06 Q1009 NOSIG RMK 2ST008 7SC012 A2980
RJAA 191730Z 32004KT 2500 BR FEW004 BKN008 BKN010 07/06 Q1009 BECMG FEW008 BKN012
RJAA 191700Z 31004KT 280V340 2000 BR FEW002 SCT004 BKN008 07/07 Q1009 TEMPO FEW003 BKN005 RMK 1ST002 3ST004 6ST008 A2982
RJAA 191630Z 30003KT 250V340 1800 R16R/P2000N R16L/P2000N BR FEW002 SCT004 BKN005 07/07 Q1009 NOSIG
RJAA 191621Z 31005KT 280V340 1600 R16R/P2000N R16L/P2000N BR FEW002 SCT003 BKN004 08/07 Q1009 RMK 1ST002 3ST003 7ST004 A2982
RJAA 191600Z 30005KT 260V330 1600 R16R/P2000N R16L/P2000N -RADZ BR FEW001 BKN002 BKN003 08/08 Q1010 BECMG 1400 BR
RJAA 191530Z 32007KT 2000 -RA BR FEW001 BKN002 BKN003 10/10 Q1010 BECMG 1400 BR
RJAA 191518Z 31005KT 2000 -RA BR FEW001 BKN002 BKN004 10/10 Q1010 RMK 1ST001 5ST002 7ST004 A2983
RJAA 191500Z 31005KT 4000 -RA BR FEW003 SCT004 BKN009 10/10 Q1010 BECMG 2500 BR FEW002 BKN004 RMK 1ST003 3ST004 7ST009 A2982
RJAA 191440Z 30003KT 250V330 7000 BR FEW007 BKN009 11/11 Q1010 RMK 1ST007 7ST009 A2983 BR N
RJAA 191430Z VRB02KT 7000 FEW008 BKN010 11/10 Q1010 BECMG 32005KT 4000 BR FEW004 BKN008
RJAA 191400Z 11001KT 8000 FEW010 BKN012 10/10 Q1010 BECMG 4000 BR FEW004 BKN008
RJAA 191330Z 33002KT 8000 -RA FEW010 BKN013 10/10 Q1012 BECMG 21005KT
RJAA 191324Z 31002KT 8000 -RA FEW010 BKN013 10/10 Q1012 RMK 1ST010 7SC013 A2990
RJAA 191300Z VRB02KT 9999 -RA FEW015 BKN020 10/10 Q1013 BECMG 21005KT
RJAA 191230Z VRB02KT 9999 FEW015 SCT020 BKN030 10/10 Q1013 BECMG 21005KT
RJAA 191200Z 20005KT 170V240 9999 FEW015 SCT020 BKN070 10/09 Q1014 NOSIG RMK 1CU015 3SC020 6AC070 A2995
RJAA 191130Z 22004KT 170V270 9999 FEW015 BKN020 09/09 Q1015 NOSIG RMK 1CU015 7SC020 A2998
RJAA 191100Z 19006KT 8000 -RA FEW015 BKN020 BKN100 09/09 Q1015 NOSIG RMK 1CU015 5SC020 6AC100 A2998 P/FR
RJAA 191030Z 22004KT 6000 -RA FEW015 BKN020 10/08 Q1016 TEMPO 4000 -RA BR
RJAA 191000Z 25002KT 6000 -RA FEW015 BKN020 BKN030 10/09 Q1017 BECMG 20005KT TEMPO 4000 -RA BR
RJAA 190930Z 20003KT 170V230 6000 -SHRA FEW015 BKN035 BKN045 11/09 Q1017 TEMPO 4000 -RA BR
RJAA 190907Z 21003KT 7000 -SHRA FEW015 BKN035 11/09 Q1017 RMK 1CU015 7CU035 A3005
RJAA 190900Z 20002KT 4500 -SHRA BR FEW015 BKN035 11/09 Q1017 NOSIG RMK 1CU015 7CU035 A3005
RJAA 190830Z VRB01KT 4000 -SHRA BR FEW015 SCT035 BKN050 10/09 Q1017 BECMG 20005KT RMK 1CU015 3CU035 7SC050 A3006
RJAA 190800Z VRB02KT 4000 -SHRA BR FEW030 SCT040 BKN050 10/09 Q1018 BECMG 20005KT RMK 1CU030 3CU040 7SC050 A3008
RJAA 190730Z 00000KT 4000 -SHRA BR FEW030 BKN040 10/09 Q1018 NOSIG RMK 1CU030 7CU040 A3008
RJAA 190700Z VRB01KT 4500 R16R/P2000N R16L/P2000N VCSH BR FEW030 BKN080 11/09 Q1019 NOSIG
RJAA 190630Z 00000KT 5000 BR FEW030 BKN090 11/08 Q1019 NOSIG RMK 1CU030 7AC090 A3010
RJAA 190600Z VRB01KT 5000 BR FEW030 OVC100 11/08 Q1019 NOSIG RMK 1CU030 8AS100 A3011
RJAA 190530Z VRB02KT 7000 -RA FEW030 SCT050 OVC090 10/08 Q1020 NOSIG RMK 1CU030 3SC050 8AS090 A3013
RJAA 190500Z 29003KT 250V320 5000 -RA BR FEW030 SCT070 OVC100 11/07 Q1020 NOSIG RMK 1CU030 3AC070 8AS100 A3014
RJAA 190430Z 24003KT 8000 -RA FEW030 BKN070 OVC100 12/08 Q1021 BECMG 23005KT
RJAA 190400Z 20003KT 160V240 8000 -RA FEW030 BKN080 OVC100 12/07 Q1021 NOSIG RMK 1CU030 6AC080 8AS100 A3016
RJAA 190330Z 22005KT 180V250 7000 -RA FEW030 SCT080 OVC100 11/07 Q1022 NOSIG RMK 1CU030 4AC080 8AS100 A3018
RJAA 190300Z 23005KT 200V260 8000 -RA FEW030 OVC100 11/06 Q1023 NOSIG RMK 1CU030 8AS100 A3021
RJAA 190230Z 21005KT 160V250 8000 -RA FEW030 OVC100 11/05 Q1023 NOSIG RMK 1CU030 8AS100 A3023
RJAA 190200Z 24005KT 9000 -RA FEW030 OVC110 10/04 Q1024 BECMG 23005KT RMK 1CU030 8AS110 A3026
RJAA 190130Z 23003KT 200V270 9999 FEW030 SCT100 BKN/// 10/04 Q1024 NOSIG
RJAA 190100Z 23003KT 190V280 9999 FEW030 BKN100 09/03 Q1025 NOSIG RMK 1CU030 7AC100 A3028
RJAA 190030Z VRB02KT 9999 FEW030 BKN110 OVC150 08/03 Q1025 BECMG 25005KT
RJAA 190000Z 25003KT 220V300 9999 FEW030 BKN110 07/02 Q1026 NOSIG RMK 1CU030 7AC110 A3030
RJAA 182330Z VRB02KT 9999 FEW030 BKN110 06/02 Q1026 NOSIG RMK 1CU030 7AC110 A3031
RJAA 182300Z VRB02KT 9999 FEW030 BKN110 06/02 Q1026 NOSIG RMK 1CU030 7AC110 A3032
RJAA 182230Z 25004KT 220V300 9999 FEW030 BKN110 05/03 Q1026 NOSIG RMK 1CU030 7AC110 A3031
RJAA 182200Z 26004KT 230V300 9999 FEW030 BKN110 05/03 Q1025 NOSIG RMK 1CU030 7AC110 A3029
RJAA 182130Z 26003KT 9999 FEW030 BKN110 05/03 Q1025 NOSIG RMK 1CU030 7AC110 A3027
RJAA 182100Z 27003KT 230V300 9999 FEW030 BKN130 05/03 Q1025 NOSIG RMK 1CU030 7AC130 A3028
RJAA 182030Z VRB02KT 9999 FEW030 BKN140 05/03 Q1025 NOSIG RMK 1CU030 7AC140 A3028
RJAA 182000Z 36004KT 9999 FEW020 BKN140 05/03 Q1025 NOSIG RMK 1CU020 7AC140 A3027
RJAA 181930Z 01004KT 9999 FEW020 BKN150 05/03 Q1025 NOSIG RMK 1CU020 6AC150 A3028
RJAA 181900Z 34004KT 9000 FEW020 05/02 Q1025 NOSIG RMK 1CU020 A3028
RJAA 181830Z 33004KT 9000 FEW015 BKN170 05/03 Q1025 NOSIG RMK 1CU015 7AC170 A3028
RJAA 181800Z 33006KT 9000 FEW015 BKN170 05/03 Q1025 NOSIG RMK 1CU015 7AC170 A3028
RJAA 181730Z 33004KT 9999 FEW020 BKN170 05/03 Q1025 NOSIG RMK 1CU020 7AC170 A3029
RJAA 181700Z 33003KT 290V350 9999 FEW020 BKN035 06/03 Q1026 NOSIG RMK 1CU020 6SC035 A3030
RJAA 181630Z 33002KT 9999 FEW025 BKN035 BKN/// 06/02 Q1025 NOSIG
RJAA 181600Z 03004KT 330V070 9999 FEW025 SCT040 BKN180 06/03 Q1026 NOSIG RMK 1CU025 4SC040 7AC180 A3030
RJAA 181530Z 06003KT 020V120 9999 FEW025 BKN035 BKN/// 08/04 Q1026 NOSIG RMK 1CU025 5SC035 A3031
RJAA 181500Z VRB02KT 9999 FEW030 SCT035 BKN060 06/03 Q1026 NOSIG RMK 1CU030 4SC035 6SC060 A3031
RJAA 181430Z VRB02KT 9999 FEW030 BKN040 07/04 Q1026 NOSIG RMK 1CU030 7SC040 A3031
RJAA 181400Z 08002KT 9999 FEW030 BKN040 07/04 Q1026 NOSIG RMK 1CU030 6SC040 A3031
RJAA 181330Z 05002KT 9999 FEW030 SCT/// 05/02 Q1026 NOSIG
RJAA 181300Z 07002KT 9999 FEW030 SCT/// 04/02 Q1026 NOSIG
RJAA 181230Z VRB01KT 9999 FEW030 BKN/// 06/03 Q1026 NOSIG
RJAA 181200Z 13002KT 9999 FEW030 SCT/// 04/02 Q1026 NOSIG
RJAA 181130Z 14003KT 9999 FEW030 SCT/// 05/01 Q1025 NOSIG RMK 1CU030 A3029
RJAA 181100Z 18003KT 9999 FEW030 BKN/// 07/02 Q1025 NOSIG
RJAA 181030Z 14004KT 9999 FEW030 BKN/// 05/01 Q1025 NOSIG
RJAA 181000Z 15004KT 9999 FEW030 SCT/// 07/02 Q1025 NOSIG RMK 1CU030 A3028
RJAA 180930Z 17004KT 9999 FEW030 SCT/// 07/01 Q1025 NOSIG
RJAA 180900Z 17005KT 9999 FEW030 08/01 Q1025 NOSIG RMK 1CU030 A3027
RJAA 180830Z 16006KT 9999 FEW030 09/01 Q1024 NOSIG RMK 1CU030 A3025
RJAA 180800Z 21005KT 150V250 CAVOK 11/M01 Q1023 BECMG 15010KT
RJAA 180730Z 23005KT 200V260 9999 FEW030 12/M01 Q1023 NOSIG RMK 1CU030 A3023
RJAA 180700Z 24007KT 180V280 9999 FEW030 13/M06 Q1023 BECMG TL0730 18006KT
RJAA 180630Z 24008KT 210V280 9999 FEW030 13/M03 Q1023 BECMG TL0700 20007KT RMK 1CU030 A3021